Mogna, Argentina
Current Conditions -  °F | °C
As of 11:00 AM on Friday 19 Dec 2014 (Local Time) from SAME Reporting Station
Clear Clear  
Wind Chill: 82°   Ceiling: Unl
Heat Index: 82°   Visibility: 6mi
Dew Point: 57°   Wind: 6mph
Humidity: 42%   Direction: 90°E
Pressure: 29.65"   Gusts: NA
Location:  30.69°S, 68.36°W
Report Text: SAME 191400Z 09005KT CAVOK 28/14 Q1004
Loading
Personal Weather Stations






























Interactive Weather Map New forecast layout! Learn more

10-Day Weather Forecast

Advertisements
Track Severe Weather on mobile